Wetterdaten: Woche 28.12.20 - 03.01.21 (KW53)
Datum Zeit Temp. Aussen Temp. o. S. Temp +5cm Feuchte Auss Luftdruck Regen Sonnenschein Regendauer Solar Windben Empfang
28.12.2020 00:00 4,3 C 3,3 C 1,6 C 94 % 977,2 hPa 0,2 l/m 0,00 h 0,17 h 0 W/m 0,0 km/h (0 Bft) 96,09 %
28.12.2020 01:00 4,2 C 2,8 C 1,5 C 94 % 977,2 hPa 0,8 l/m 0,00 h 1,00 h 0 W/m 4,2 km/h (1 Bft) 98,70 %
28.12.2020 02:00 3,9 C 2,6 C 1,3 C 95 % 977,3 hPa 1,4 l/m 0,00 h 0,90 h 0 W/m 2,3 km/h (1 Bft) 96,69 %
28.12.2020 03:00 3,6 C 2,8 C 1,4 C 96 % 977,4 hPa 0,2 l/m 0,00 h 0,60 h 0 W/m 0,1 km/h (0 Bft) 96,82 %
28.12.2020 04:00 3,7 C 2,8 C 1,6 C 97 % 977,6 hPa 0,2 l/m 0,00 h 0,43 h 0 W/m 2,5 km/h (1 Bft) 96,03 %
28.12.2020 05:00 3,6 C 2,8 C 1,6 C 97 % 977,7 hPa 0,0 l/m 0,00 h 0,00 h 0 W/m 0,8 km/h (0 Bft) 96,71 %
28.12.2020 06:00 3,2 C 1,7 C 0,5 C 97 % 977,6 hPa 0,0 l/m 0,00 h 0,00 h 0 W/m 0,0 km/h (0 Bft) 93,55 %
28.12.2020 07:00 2,5 C 1,5 C 0,4 C 97 % 977,9 hPa 0,0 l/m 0,00 h 0,00 h 0 W/m 0,0 km/h (0 Bft) 97,08 %
28.12.2020 08:00 2,0 C 1,1 C -0,1 C 97 % 978,3 hPa 0,0 l/m 0,00 h 0,00 h 5 W/m 0,0 km/h (0 Bft) 98,72 %
28.12.2020 09:00 2,0 C 1,5 C 0,2 C 97 % 978,5 hPa 0,0 l/m 0,00 h 0,00 h 22 W/m 0,1 km/h (0 Bft) 94,98 %
28.12.2020 10:00 2,9 C 2,7 C 1,3 C 97 % 978,7 hPa 0,0 l/m 0,00 h 0,00 h 44 W/m 2,1 km/h (1 Bft) 99,50 %
28.12.2020 11:00 3,8 C 3,3 C 1,7 C 95 % 978,5 hPa 0,0 l/m 0,00 h 0,00 h 46 W/m 0,6 km/h (0 Bft) 96,97 %
28.12.2020 12:00 4,2 C 3,7 C 2,4 C 93 % 978,4 hPa 0,0 l/m 0,03 h 0,00 h 98 W/m 1,3 km/h (1 Bft) 97,76 %
28.12.2020 13:00 5,2 C 6,6 C 4,6 C 88 % 977,7 hPa 0,0 l/m 0,43 h 0,00 h 150 W/m 1,1 km/h (0 Bft) 95,53 %
28.12.2020 14:00 5,8 C 6,8 C 5,6 C 86 % 977,8 hPa 0,0 l/m 0,70 h 0,00 h 134 W/m 1,4 km/h (1 Bft) 96,46 %
28.12.2020 15:00 5,7 C 4,8 C 3,8 C 87 % 977,9 hPa 0,2 l/m 0,00 h 0,37 h 26 W/m 0,9 km/h (0 Bft) 98,31 %
28.12.2020 16:00 5,0 C 3,3 C 2,7 C 92 % 977,9 hPa 0,6 l/m 0,00 h 1,00 h 5 W/m 1,0 km/h (0 Bft) 96,56 %
28.12.2020 17:00 4,6 C 3,3 C 2,7 C 94 % 977,8 hPa 0,2 l/m 0,00 h 0,27 h 0 W/m 0,0 km/h (0 Bft) 97,61 %
28.12.2020 18:00 4,5 C 3,4 C 2,7 C 95 % 978,0 hPa 0,0 l/m 0,00 h 0,00 h 0 W/m 0,7 km/h (0 Bft) 98,09 %
28.12.2020 19:00 4,1 C 3,0 C 2,2 C 95 % 978,7 hPa 0,2 l/m 0,00 h 0,23 h 0 W/m 2,5 km/h (1 Bft) 96,71 %
28.12.2020 20:00 3,9 C 2,8 C 2,1 C 95 % 979,1 hPa 0,0 l/m 0,00 h 0,00 h 0 W/m 0,0 km/h (0 Bft) 97,09 %
28.12.2020 21:00 3,5 C 2,5 C 1,5 C 94 % 979,2 hPa 0,0 l/m 0,00 h 0,00 h 0 W/m 0,0 km/h (0 Bft) 96,35 %
28.12.2020 22:00 2,8 C 1,4 C 0,7 C 94 % 979,3 hPa 0,0 l/m 0,00 h 0,00 h 0 W/m 0,0 km/h (0 Bft) 94,50 %
28.12.2020 23:00 2,2 C 1,2 C 0,3 C 95 % 979,5 hPa 0,0 l/m 0,00 h 0,00 h 0 W/m 0,1 km/h (0 Bft) 96,66 %
29.12.2020 00:00 1,8 C 0,8 C -0,1 C 95 % 979,8 hPa 0,0 l/m 0,00 h 0,00 h 0 W/m 0,1 km/h (0 Bft) 92,55 %
29.12.2020 01:00 1,3 C -0,2 C -0,8 C 95 % 980,0 hPa 0,0 l/m 0,00 h 0,00 h 0 W/m 0,0 km/h (0 Bft) 97,76 %
29.12.2020 02:00 0,4 C -1,2 C -1,8 C 95 % 980,3 hPa 0,0 l/m 0,00 h 0,00 h 0 W/m 0,0 km/h (0 Bft) 97,59 %
29.12.2020 03:00 -0,4 C -1,7 C -2,3 C 95 % 980,9 hPa 0,0 l/m 0,00 h 0,00 h 0 W/m 0,0 km/h (0 Bft) 99,05 %
29.12.2020 04:00 -0,9 C -1,7 C -2,3 C 95 % 981,3 hPa 0,0 l/m 0,00 h 0,00 h 0 W/m 0,0 km/h (0 Bft) 98,36 %
29.12.2020 05:00 -1,1 C -2,0 C -2,6 C 95 % 981,9 hPa 0,0 l/m 0,00 h 0,00 h 0 W/m 0,0 km/h (0 Bft) 97,29 %
29.12.2020 06:00 -1,4 C -2,2 C -2,8 C 96 % 982,9 hPa 0,0 l/m 0,00 h 0,00 h 0 W/m 0,0 km/h (0 Bft) 97,92 %
29.12.2020 07:00 -1,6 C -2,2 C -2,9 C 96 % 983,8 hPa 0,0 l/m 0,00 h 0,00 h 0 W/m 0,0 km/h (0 Bft) 95,77 %
29.12.2020 08:00 -0,8 C -0,9 C -1,7 C 97 % 985,0 hPa 0,0 l/m 0,00 h 0,00 h 6 W/m 0,9 km/h (0 Bft) 99,15 %
29.12.2020 09:00 0,4 C 0,1 C -0,7 C 98 % 986,1 hPa 0,0 l/m 0,00 h 0,00 h 19 W/m 3,4 km/h (1 Bft) 98,22 %
29.12.2020 10:00 1,2 C 1,3 C 0,5 C 98 % 987,2 hPa 0,0 l/m 0,00 h 0,00 h 49 W/m 7,6 km/h (2 Bft) 93,75 %
29.12.2020 11:00 2,3 C 2,2 C 1,4 C 98 % 988,1 hPa 0,0 l/m 0,00 h 0,03 h 36 W/m 13,6 km/h (3 Bft) 97,09 %
29.12.2020 12:00 3,1 C 3,1 C 2,4 C 97 % 988,9 hPa 0,0 l/m 0,00 h 0,00 h 56 W/m 13,2 km/h (3 Bft) 95,60 %
29.12.2020 13:00 3,9 C 3,9 C 3,3 C 95 % 989,5 hPa 0,0 l/m 0,00 h 0,00 h 72 W/m 28,1 km/h (4 Bft) 95,71 %
29.12.2020 14:00 4,3 C 3,8 C 3,1 C 90 % 990,4 hPa 0,0 l/m 0,00 h 0,07 h 66 W/m 18,9 km/h (3 Bft) 96,66 %
29.12.2020 15:00 4,3 C 4,0 C 2,8 C 90 % 991,1 hPa 0,0 l/m 0,00 h 0,00 h 40 W/m 12,6 km/h (3 Bft) 96,71 %
29.12.2020 16:00 4,1 C 3,4 C 2,3 C 89 % 991,9 hPa 0,0 l/m 0,00 h 0,00 h 9 W/m 4,2 km/h (1 Bft) 97,51 %
29.12.2020 17:00 4,0 C 3,3 C 2,2 C 90 % 992,8 hPa 0,0 l/m 0,00 h 0,00 h 0 W/m 3,0 km/h (1 Bft) 96,81 %
29.12.2020 18:00 3,5 C 2,8 C 1,4 C 90 % 993,5 hPa 0,0 l/m 0,00 h 0,00 h 0 W/m 1,4 km/h (1 Bft) 97,88 %
29.12.2020 19:00 3,1 C 2,4 C 1,1 C 92 % 994,2 hPa 0,0 l/m 0,00 h 0,00 h 0 W/m 0,3 km/h (0 Bft) 96,28 %
29.12.2020 20:00 2,5 C 1,6 C 0,3 C 93 % 994,9 hPa 0,0 l/m 0,00 h 0,00 h 0 W/m 0,5 km/h (0 Bft) 96,07 %
29.12.2020 21:00 1,6 C 0,7 C -0,4 C 93 % 995,5 hPa 0,0 l/m 0,00 h 0,00 h 0 W/m 0,0 km/h (0 Bft) 95,64 %
29.12.2020 22:00 1,3 C 0,8 C -0,6 C 94 % 996,1 hPa 0,0 l/m 0,00 h 0,00 h 0 W/m 0,1 km/h (0 Bft) 97,06 %
29.12.2020 23:00 1,2 C 1,0 C -0,3 C 95 % 996,5 hPa 0,0 l/m 0,00 h 0,00 h 0 W/m 0,5 km/h (0 Bft) 98,85 %
30.12.2020 00:00 1,8 C 1,3 C 0,2 C 95 % 997,0 hPa 0,0 l/m 0,00 h 0,00 h 0 W/m 0,1 km/h (0 Bft) 97,12 %
30.12.2020 01:00 1,7 C 1,2 C 0,2 C 95 % 997,2 hPa 0,0 l/m 0,00 h 0,00 h 0 W/m 0,0 km/h (0 Bft) 96,74 %
30.12.2020 02:00 2,0 C 1,7 C 0,7 C 96 % 997,5 hPa 0,0 l/m 0,00 h 0,00 h 0 W/m 0,5 km/h (0 Bft) 99,43 %
30.12.2020 03:00 2,2 C 1,7 C 1,1 C 96 % 997,9 hPa 0,0 l/m 0,00 h 0,00 h 0 W/m 0,2 km/h (0 Bft) 96,66 %
30.12.2020 04:00 2,1 C 1,3 C 0,5 C 96 % 998,2 hPa 0,0 l/m 0,00 h 0,00 h 0 W/m 0,6 km/h (0 Bft) 95,73 %
30.12.2020 05:00 1,9 C 1,4 C 0,7 C 96 % 998,5 hPa 0,0 l/m 0,00 h 0,00 h 0 W/m 0,2 km/h (0 Bft) 96,16 %
30.12.2020 06:00 2,1 C 1,7 C 1,1 C 97 % 998,8 hPa 0,0 l/m 0,00 h 0,00 h 0 W/m 0,3 km/h (0 Bft) 96,14 %
30.12.2020 07:00 2,1 C 1,6 C 1,0 C 97 % 999,2 hPa 0,0 l/m 0,00 h 0,00 h 0 W/m 0,3 km/h (0 Bft) 96,42 %
30.12.2020 08:00 2,0 C 1,8 C 1,0 C 97 % 1000,0 hPa 0,0 l/m 0,00 h 0,00 h 9 W/m 0,0 km/h (0 Bft) 97,72 %
30.12.2020 09:00 2,5 C 2,2 C 1,6 C 97 % 1000,8 hPa 0,0 l/m 0,00 h 0,03 h 17 W/m 2,1 km/h (1 Bft) 95,87 %
30.12.2020 10:00 3,1 C 3,0 C 2,3 C 97 % 1001,3 hPa 0,0 l/m 0,00 h 0,00 h 45 W/m 4,9 km/h (1 Bft) 99,67 %
30.12.2020 11:00 4,0 C 4,1 C 3,4 C 96 % 1001,6 hPa 0,0 l/m 0,03 h 0,00 h 85 W/m 13,9 km/h (3 Bft) 98,86 %
30.12.2020 12:00 4,4 C 4,0 C 3,3 C 93 % 1001,8 hPa 0,0 l/m 0,00 h 0,07 h 58 W/m 17,6 km/h (3 Bft) 94,66 %
30.12.2020 13:00 4,6 C 4,1 C 3,1 C 93 % 1001,8 hPa 0,0 l/m 0,00 h 0,23 h 65 W/m 15,1 km/h (3 Bft) 97,23 %
30.12.2020 14:00 4,5 C 4,1 C 3,1 C 94 % 1002,1 hPa 0,0 l/m 0,00 h 0,00 h 30 W/m 14,5 km/h (3 Bft) 97,37 %
30.12.2020 15:00 4,5 C 3,9 C 2,7 C 94 % 1002,6 hPa 0,0 l/m 0,00 h 0,10 h 15 W/m 9,8 km/h (2 Bft) 95,44 %
30.12.2020 16:00 4,5 C 4,0 C 2,7 C 94 % 1003,1 hPa 0,0 l/m 0,00 h 0,00 h 7 W/m 5,1 km/h (1 Bft) 98,22 %
30.12.2020 17:00 4,5 C 3,9 C 2,7 C 93 % 1003,7 hPa 0,0 l/m 0,00 h 0,00 h 0 W/m 5,6 km/h (1 Bft) 97,29 %
30.12.2020 18:00 4,5 C 3,9 C 2,7 C 91 % 1004,1 hPa 0,0 l/m 0,00 h 0,00 h 0 W/m 16,8 km/h (3 Bft) 98,17 %
30.12.2020 19:00 4,4 C 3,9 C 2,4 C 89 % 1004,4 hPa 0,0 l/m 0,00 h 0,00 h 0 W/m 4,3 km/h (1 Bft) 97,82 %
30.12.2020 20:00 4,4 C 3,9 C 2,2 C 89 % 1004,7 hPa 0,0 l/m 0,00 h 0,00 h 0 W/m 1,7 km/h (1 Bft) 94,67 %
30.12.2020 21:00 4,2 C 3,6 C 2,2 C 90 % 1004,8 hPa 0,0 l/m 0,00 h 0,00 h 0 W/m 0,6 km/h (0 Bft) 98,99 %
30.12.2020 22:00 4,0 C 3,4 C 2,2 C 90 % 1004,7 hPa 0,0 l/m 0,00 h 0,00 h 0 W/m 1,0 km/h (0 Bft) 99,64 %
30.12.2020 23:00 3,9 C 2,9 C 1,4 C 91 % 1004,6 hPa 0,4 l/m 0,00 h 0,37 h 0 W/m 0,0 km/h (0 Bft) 93,91 %
31.12.2020 00:00 3,8 C 2,7 C 1,3 C 93 % 1004,3 hPa 0,2 l/m 0,00 h 0,50 h 0 W/m 4,0 km/h (1 Bft) 99,45 %
31.12.2020 01:00 3,7 C 2,2 C 1,3 C 93 % 1004,0 hPa 0,4 l/m 0,00 h 0,93 h 0 W/m 4,2 km/h (1 Bft) 97,30 %
31.12.2020 02:00 3,5 C 2,3 C 1,6 C 94 % 1003,8 hPa 0,2 l/m 0,00 h 0,27 h 0 W/m 0,7 km/h (0 Bft) 93,74 %
31.12.2020 03:00 3,4 C 2,4 C 1,6 C 95 % 1003,6 hPa 0,0 l/m 0,00 h 0,00 h 0 W/m 1,1 km/h (0 Bft) 97,22 %
31.12.2020 04:00 3,4 C 2,5 C 1,6 C 95 % 1003,4 hPa 0,0 l/m 0,00 h 0,40 h 0 W/m 1,0 km/h (0 Bft) 97,85 %
31.12.2020 05:00 3,2 C 2,2 C 1,2 C 95 % 1002,9 hPa 1,2 l/m 0,00 h 1,00 h 0 W/m 0,5 km/h (0 Bft) 96,21 %
31.12.2020 06:00 2,9 C 1,9 C 1,1 C 96 % 1002,7 hPa 1,2 l/m 0,00 h 1,00 h 0 W/m 1,4 km/h (1 Bft) 97,42 %
31.12.2020 07:00 2,8 C 1,7 C 1,1 C 96 % 1002,6 hPa 0,6 l/m 0,00 h 0,97 h 0 W/m 0,2 km/h (0 Bft) 99,50 %
31.12.2020 08:00 2,7 C 1,7 C 1,1 C 97 % 1002,6 hPa 0,2 l/m 0,00 h 0,67 h 0 W/m 0,5 km/h (0 Bft) 97,13 %
31.12.2020 09:00 2,6 C 1,9 C 1,2 C 97 % 1002,5 hPa 0,2 l/m 0,00 h 0,00 h 15 W/m 1,1 km/h (0 Bft) 97,75 %
31.12.2020 10:00 2,7 C 2,2 C 1,6 C 98 % 1002,5 hPa 0,0 l/m 0,00 h 0,03 h 41 W/m 1,7 km/h (1 Bft) 98,69 %
31.12.2020 11:00 3,0 C 2,6 C 1,7 C 98 % 1002,3 hPa 0,0 l/m 0,00 h 0,00 h 61 W/m 1,3 km/h (1 Bft) 93,62 %
31.12.2020 12:00 3,1 C 2,8 C 2,2 C 97 % 1002,1 hPa 0,0 l/m 0,00 h 0,00 h 50 W/m 0,7 km/h (0 Bft) 96,58 %
31.12.2020 13:00 3,0 C 2,7 C 1,6 C 97 % 1001,9 hPa 0,0 l/m 0,00 h 0,00 h 41 W/m 0,7 km/h (0 Bft) 97,31 %
31.12.2020 14:00 2,9 C 2,2 C 1,6 C 97 % 1001,9 hPa 0,0 l/m 0,00 h 0,43 h 41 W/m 0,5 km/h (0 Bft) 94,97 %
31.12.2020 15:00 2,8 C 2,1 C 1,6 C 97 % 1002,4 hPa 0,2 l/m 0,00 h 0,60 h 16 W/m 0,3 km/h (0 Bft) 99,58 %
31.12.2020 16:00 2,6 C 1,7 C 1,5 C 97 % 1002,7 hPa 0,0 l/m 0,00 h 0,80 h 7 W/m 0,0 km/h (0 Bft) 95,96 %
31.12.2020 17:00 2,5 C 1,7 C 1,4 C 97 % 1003,0 hPa 0,2 l/m 0,00 h 0,53 h 0 W/m 0,0 km/h (0 Bft) 98,08 %
31.12.2020 18:00 2,5 C 1,7 C 1,6 C 97 % 1003,3 hPa 0,2 l/m 0,00 h 0,77 h 0 W/m 0,0 km/h (0 Bft) 98,64 %
31.12.2020 19:00 2,5 C 1,7 C 1,6 C 97 % 1003,5 hPa 0,0 l/m 0,00 h 0,13 h 0 W/m 0,0 km/h (0 Bft) 98,37 %
31.12.2020 20:00 2,5 C 1,7 C 1,6 C 98 % 1004,0 hPa 0,0 l/m 0,00 h 0,00 h 0 W/m 0,0 km/h (0 Bft) 96,67 %
31.12.2020 21:00 2,5 C 2,0 C 1,6 C 98 % 1004,5 hPa 0,2 l/m 0,00 h 0,40 h 0 W/m 0,0 km/h (0 Bft) 97,59 %
31.12.2020 22:00 2,6 C 2,2 C 1,7 C 98 % 1004,9 hPa 0,0 l/m 0,00 h 0,00 h 0 W/m 0,0 km/h (0 Bft) 99,00 %
31.12.2020 23:00 2,7 C 2,0 C 1,6 C 98 % 1005,1 hPa 0,0 l/m 0,00 h 0,00 h 0 W/m 0,0 km/h (0 Bft) 95,31 %
01.01.2021 00:00 2,5 C 1,7 C 1,6 C 98 % 1005,4 hPa 0,0 l/m 0,00 h 0,00 h 0 W/m 0,0 km/h (0 Bft) 97,20 %
01.01.2021 01:00 2,2 C 1,3 C 1,2 C 98 % 1005,8 hPa 0,0 l/m 0,00 h 0,00 h 0 W/m 0,0 km/h (0 Bft) 96,61 %
01.01.2021 02:00 2,0 C 1,1 C 1,1 C 98 % 1006,0 hPa 0,0 l/m 0,00 h 0,00 h 0 W/m 0,0 km/h (0 Bft) 94,42 %
01.01.2021 03:00 1,9 C 1,1 C 1,1 C 98 % 1006,4 hPa 0,0 l/m 0,00 h 0,00 h 0 W/m 0,0 km/h (0 Bft) 95,76 %
01.01.2021 04:00 2,0 C 1,5 C 1,1 C 98 % 1006,6 hPa 0,0 l/m 0,00 h 0,07 h 0 W/m 0,0 km/h (0 Bft) 96,09 %
01.01.2021 05:00 2,0 C 1,3 C 1,1 C 99 % 1006,7 hPa 0,0 l/m 0,00 h 0,00 h 0 W/m 0,0 km/h (0 Bft) 95,47 %
01.01.2021 06:00 1,9 C 1,1 C 1,1 C 99 % 1007,0 hPa 0,0 l/m 0,00 h 0,00 h 0 W/m 0,0 km/h (0 Bft) 97,62 %
01.01.2021 07:00 1,7 C 1,1 C 1,1 C 99 % 1007,6 hPa 0,0 l/m 0,00 h 0,00 h 0 W/m 0,0 km/h (0 Bft) 95,02 %
01.01.2021 08:00 1,5 C 1,1 C 0,5 C 99 % 1008,1 hPa 0,0 l/m 0,00 h 0,00 h 10 W/m 0,1 km/h (0 Bft) 98,20 %
01.01.2021 09:00 1,6 C 1,2 C 1,1 C 99 % 1008,5 hPa 0,0 l/m 0,00 h 0,00 h 33 W/m 0,1 km/h (0 Bft) 99,22 %
01.01.2021 10:00 1,9 C 2,0 C 1,6 C 99 % 1008,9 hPa 0,0 l/m 0,00 h 0,00 h 60 W/m 0,2 km/h (0 Bft) 96,78 %
01.01.2021 11:00 2,5 C 2,8 C 2,4 C 99 % 1009,3 hPa 0,0 l/m 0,00 h 0,00 h 83 W/m 0,2 km/h (0 Bft) 99,06 %
01.01.2021 12:00 3,0 C 3,5 C 3,1 C 99 % 1009,3 hPa 0,0 l/m 0,00 h 0,00 h 102 W/m 0,2 km/h (0 Bft) 98,40 %
01.01.2021 13:00 3,3 C 3,8 C 3,3 C 99 % 1009,2 hPa 0,0 l/m 0,00 h 0,00 h 86 W/m 0,1 km/h (0 Bft) 96,33 %
01.01.2021 14:00 3,4 C 3,7 C 3,2 C 98 % 1009,3 hPa 0,0 l/m 0,00 h 0,00 h 61 W/m 0,0 km/h (0 Bft) 99,39 %
01.01.2021 15:00 3,2 C 3,0 C 2,4 C 97 % 1009,5 hPa 0,0 l/m 0,07 h 0,00 h 38 W/m 0,0 km/h (0 Bft) 96,61 %
01.01.2021 16:00 3,0 C 2,5 C 2,4 C 96 % 1009,9 hPa 0,0 l/m 0,00 h 0,00 h 14 W/m 0,0 km/h (0 Bft) 93,99 %
01.01.2021 17:00 2,9 C 2,7 C 2,2 C 96 % 1010,3 hPa 0,0 l/m 0,00 h 0,00 h 0 W/m 0,2 km/h (0 Bft) 96,73 %
01.01.2021 18:00 3,1 C 2,8 C 2,6 C 97 % 1010,5 hPa 0,0 l/m 0,00 h 0,00 h 0 W/m 0,0 km/h (0 Bft) 94,30 %
01.01.2021 19:00 3,3 C 2,8 C 2,7 C 97 % 1010,9 hPa 0,0 l/m 0,00 h 0,00 h 0 W/m 0,1 km/h (0 Bft) 96,85 %
01.01.2021 20:00 3,1 C 2,8 C 2,4 C 96 % 1011,4 hPa 0,0 l/m 0,00 h 0,00 h 0 W/m 0,2 km/h (0 Bft) 96,85 %
01.01.2021 21:00 3,1 C 2,8 C 2,5 C 96 % 1011,9 hPa 0,0 l/m 0,00 h 0,00 h 0 W/m 1,6 km/h (1 Bft) 94,07 %
01.01.2021 22:00 3,0 C 2,6 C 2,2 C 96 % 1012,1 hPa 0,0 l/m 0,00 h 0,00 h 0 W/m 1,6 km/h (1 Bft) 98,86 %
01.01.2021 23:00 2,8 C 2,2 C 2,2 C 96 % 1012,4 hPa 0,0 l/m 0,00 h 0,00 h 0 W/m 1,3 km/h (1 Bft) 98,51 %
02.01.2021 00:00 2,6 C 2,2 C 2,0 C 95 % 1012,6 hPa 0,0 l/m 0,00 h 0,00 h 0 W/m 3,6 km/h (1 Bft) 96,84 %
02.01.2021 01:00 2,2 C 1,7 C 1,6 C 95 % 1012,8 hPa 0,0 l/m 0,00 h 0,00 h 0 W/m 6,2 km/h (2 Bft) 98,93 %
02.01.2021 02:00 2,2 C 1,4 C 1,3 C 95 % 1013,1 hPa 0,0 l/m 0,00 h 0,23 h 0 W/m 6,6 km/h (2 Bft) 95,57 %
02.01.2021 03:00 2,1 C 1,1 C 1,1 C 95 % 1013,2 hPa 0,2 l/m 0,00 h 0,00 h 0 W/m 5,0 km/h (1 Bft) 96,16 %
02.01.2021 04:00 1,8 C 1,1 C 1,1 C 95 % 1013,3 hPa 0,0 l/m 0,00 h 0,00 h 0 W/m 3,1 km/h (1 Bft) 99,07 %
02.01.2021 05:00 1,7 C 1,1 C 1,1 C 95 % 1013,3 hPa 0,0 l/m 0,00 h 0,00 h 0 W/m 1,0 km/h (0 Bft) 96,63 %
02.01.2021 06:00 1,8 C 1,4 C 1,1 C 95 % 1013,4 hPa 0,0 l/m 0,00 h 0,00 h 0 W/m 0,4 km/h (0 Bft) 95,51 %
02.01.2021 07:00 2,0 C 1,7 C 1,1 C 95 % 1013,8 hPa 0,0 l/m 0,00 h 0,00 h 0 W/m 0,0 km/h (0 Bft) 95,84 %
02.01.2021 08:00 1,9 C 1,7 C 1,1 C 95 % 1014,1 hPa 0,0 l/m 0,00 h 0,00 h 5 W/m 0,7 km/h (0 Bft) 95,82 %
02.01.2021 09:00 1,9 C 1,6 C 1,1 C 95 % 1014,5 hPa 0,0 l/m 0,00 h 0,00 h 15 W/m 0,4 km/h (0 Bft) 94,99 %
02.01.2021 10:00 2,0 C 1,9 C 1,5 C 95 % 1014,9 hPa 0,0 l/m 0,00 h 0,00 h 33 W/m 0,6 km/h (0 Bft) 97,47 %
02.01.2021 11:00 2,3 C 2,2 C 2,1 C 94 % 1015,1 hPa 0,0 l/m 0,00 h 0,00 h 49 W/m 0,5 km/h (0 Bft) 99,02 %
02.01.2021 12:00 2,7 C 2,9 C 2,7 C 94 % 1014,5 hPa 0,0 l/m 0,07 h 0,00 h 95 W/m 0,4 km/h (0 Bft) 97,40 %
02.01.2021 13:00 3,1 C 3,0 C 2,7 C 93 % 1014,0 hPa 0,0 l/m 0,00 h 0,00 h 60 W/m 0,3 km/h (0 Bft) 98,07 %
02.01.2021 14:00 3,1 C 2,8 C 2,4 C 93 % 1013,9 hPa 0,0 l/m 0,00 h 0,00 h 37 W/m 0,2 km/h (0 Bft) 97,82 %
02.01.2021 15:00 3,1 C 2,8 C 2,2 C 93 % 1014,0 hPa 0,0 l/m 0,00 h 0,00 h 19 W/m 0,2 km/h (0 Bft) 96,69 %
02.01.2021 16:00 3,0 C 2,6 C 2,2 C 94 % 1014,4 hPa 0,0 l/m 0,00 h 0,00 h 5 W/m 0,4 km/h (0 Bft) 97,94 %
02.01.2021 17:00 2,9 C 2,2 C 1,7 C 94 % 1014,4 hPa 0,0 l/m 0,00 h 0,00 h 0 W/m 0,0 km/h (0 Bft) 94,28 %
02.01.2021 18:00 2,9 C 2,2 C 1,6 C 95 % 1014,7 hPa 0,0 l/m 0,00 h 0,00 h 0 W/m 0,0 km/h (0 Bft) 94,17 %
02.01.2021 19:00 2,9 C 2,2 C 1,6 C 95 % 1014,6 hPa 0,0 l/m 0,00 h 0,00 h 0 W/m 0,0 km/h (0 Bft) 97,23 %
02.01.2021 20:00 2,7 C 2,2 C 1,6 C 95 % 1014,6 hPa 0,0 l/m 0,00 h 0,00 h 0 W/m 0,0 km/h (0 Bft) 96,93 %
02.01.2021 21:00 2,5 C 2,0 C 1,6 C 96 % 1014,6 hPa 0,0 l/m 0,00 h 0,00 h 0 W/m 0,0 km/h (0 Bft) 98,16 %
02.01.2021 22:00 2,5 C 1,7 C 1,6 C 96 % 1014,8 hPa 0,0 l/m 0,00 h 0,00 h 0 W/m 0,0 km/h (0 Bft) 97,86 %
02.01.2021 23:00 2,4 C 1,9 C 1,6 C 96 % 1015,2 hPa 0,0 l/m 0,00 h 0,00 h 0 W/m 0,1 km/h (0 Bft) 96,26 %
03.01.2021 00:00 2,5 C 2,1 C 1,6 C 96 % 1015,0 hPa 0,0 l/m 0,00 h 0,00 h 0 W/m 0,0 km/h (0 Bft) 98,79 %
03.01.2021 01:00 2,5 C 2,2 C 1,6 C 97 % 1014,7 hPa 0,0 l/m 0,00 h 0,00 h 0 W/m 0,0 km/h (0 Bft) 97,42 %
03.01.2021 02:00 2,5 C 2,2 C 1,6 C 97 % 1014,5 hPa 0,0 l/m 0,00 h 0,00 h 0 W/m 0,1 km/h (0 Bft) 94,01 %
03.01.2021 03:00 2,6 C 2,2 C 1,6 C 97 % 1014,5 hPa 0,0 l/m 0,00 h 0,00 h 0 W/m 0,0 km/h (0 Bft) 99,79 %
03.01.2021 04:00 2,6 C 2,2 C 1,6 C 97 % 1014,4 hPa 0,0 l/m 0,00 h 0,00 h 0 W/m 0,2 km/h (0 Bft) 96,32 %
03.01.2021 05:00 2,5 C 2,2 C 1,6 C 97 % 1014,2 hPa 0,0 l/m 0,00 h 0,00 h 0 W/m 0,1 km/h (0 Bft) 97,44 %
03.01.2021 06:00 2,4 C 2,2 C 1,6 C 97 % 1014,3 hPa 0,0 l/m 0,00 h 0,00 h 0 W/m 0,0 km/h (0 Bft) 96,14 %
03.01.2021 07:00 2,3 C 2,2 C 1,6 C 97 % 1014,5 hPa 0,0 l/m 0,00 h 0,00 h 0 W/m 0,0 km/h (0 Bft) 94,81 %
03.01.2021 08:00 2,4 C 2,2 C 1,6 C 96 % 1014,6 hPa 0,0 l/m 0,00 h 0,00 h 0 W/m 0,1 km/h (0 Bft) 94,82 %
03.01.2021 09:00 2,6 C 2,4 C 2,0 C 93 % 1014,9 hPa 0,0 l/m 0,00 h 0,00 h 5 W/m 0,4 km/h (0 Bft) 95,24 %
03.01.2021 10:00 2,9 C 2,8 C 2,2 C 89 % 1015,2 hPa 0,0 l/m 0,00 h 0,00 h 14 W/m 1,4 km/h (1 Bft) 93,93 %
03.01.2021 11:00 3,1 C 2,8 C 2,2 C 86 % 1015,2 hPa 0,0 l/m 0,00 h 0,00 h 19 W/m 1,0 km/h (0 Bft) 97,42 %
03.01.2021 12:00 3,2 C 2,8 C 2,2 C 85 % 1015,0 hPa 0,0 l/m 0,00 h 0,00 h 28 W/m 0,7 km/h (0 Bft) 94,77 %
03.01.2021 13:00 3,4 C 3,3 C 2,5 C 85 % 1014,6 hPa 0,0 l/m 0,00 h 0,00 h 43 W/m 0,9 km/h (0 Bft) 97,08 %
03.01.2021 14:00 3,5 C 3,3 C 2,2 C 84 % 1014,5 hPa 0,0 l/m 0,00 h 0,00 h 27 W/m 3,1 km/h (1 Bft) 97,62 %
03.01.2021 15:00 3,5 C 3,1 C 2,0 C 85 % 1014,9 hPa 0,0 l/m 0,00 h 0,00 h 12 W/m 0,9 km/h (0 Bft) 94,20 %
03.01.2021 16:00 3,4 C 2,8 C 1,5 C 86 % 1015,0 hPa 0,0 l/m 0,00 h 0,00 h 6 W/m 0,9 km/h (0 Bft) 95,73 %
03.01.2021 17:00 3,1 C 2,7 C 1,1 C 88 % 1015,0 hPa 0,0 l/m 0,00 h 0,00 h 0 W/m 0,8 km/h (0 Bft) 98,17 %
03.01.2021 18:00 2,9 C 2,0 C 0,8 C 90 % 1015,2 hPa 0,0 l/m 0,00 h 0,20 h 0 W/m 0,9 km/h (0 Bft) 96,86 %
03.01.2021 19:00 2,5 C 1,7 C 0,4 C 93 % 1015,3 hPa 0,0 l/m 0,00 h 0,70 h 0 W/m 0,6 km/h (0 Bft) 98,39 %
03.01.2021 20:00 2,4 C 1,7 C 0,5 C 94 % 1015,3 hPa 0,0 l/m 0,00 h 0,13 h 0 W/m 0,5 km/h (0 Bft) 98,39 %
03.01.2021 21:00 2,3 C 1,7 C 0,5 C 95 % 1015,4 hPa 0,2 l/m 0,00 h 0,23 h 0 W/m 0,4 km/h (0 Bft) 97,10 %
03.01.2021 22:00 2,3 C 1,4 C 0,5 C 96 % 1015,4 hPa 0,2 l/m 0,00 h 0,83 h 0 W/m 0,3 km/h (0 Bft) 98,21 %
03.01.2021 23:00 2,1 C 1,1 C 0,4 C 96 % 1015,4 hPa 0,0 l/m 0,00 h 0,30 h 0 W/m 0,4 km/h (0 Bft) 96,15 %
Min-Datum _ 29.12.20 29.12.20 29.12.20 03.01.21 28.12.20 - - - - 28.12.20 29.12.20
_ Min-Zeit 07:36 05:14 07:44 13:40 00:00 - - - - 00:00 00:02
Minimum _ -1,7 C -2,2 C -3,4 C 84 % 977,1 hPa - - - - 0,0 km/h (0 Bft) 11,76 %
Max-Datum _ 28.12.20 28.12.20 28.12.20 01.01.21 03.01.21 28.12.20 01.01.21 31.12.20 28.12.20 29.12.20 28.12.20
_ Max-Zeit 14:40 13:10 14:20 04:00 21:54 02:08 15:55 06:08 13:08 13:16 00:38
Maximum _ 6,1 C 9,4 C 6,6 C 99 % 1015,5 hPa 1,4 l/m 0,05 h 0,07 h 300 W/m 51,5 km/h
S-SO (7 Bft)
100,00 %
Durchschnitt _ 2,8 C 2,2 C 1,5 C 95 % 1001,2 hPa #10,0 l/m #1:20 h #18:04 h 40 W/m 1,9 km/h (1 Bft) 96,90 %
© 2021 W. Hausmann